createdAt,value
2018-09-01T00:00:09.714Z,14.71
2018-09-01T00:05:13.563Z,14.62
2018-09-01T00:10:17.102Z,14.53
2018-09-01T00:15:20.689Z,14.42
2018-09-01T00:20:24.278Z,14.30
2018-09-01T00:25:27.809Z,14.25
2018-09-01T00:30:31.584Z,14.27
2018-09-01T00:35:35.410Z,14.21
2018-09-01T00:40:39.035Z,14.15
2018-09-01T00:45:43.253Z,14.08
2018-09-01T00:50:46.838Z,14.01
2018-09-01T00:55:51.403Z,13.85
2018-09-01T01:00:54.996Z,13.70
2018-09-01T01:05:58.674Z,13.52
2018-09-01T01:11:02.241Z,13.37
2018-09-01T01:16:15.718Z,13.22
2018-09-01T01:21:19.312Z,13.08
2018-09-01T01:26:23.003Z,12.92
2018-09-01T01:31:26.856Z,12.85
2018-09-01T01:36:30.654Z,12.73
2018-09-01T01:41:34.341Z,12.63
2018-09-01T01:46:37.931Z,12.54
2018-09-01T01:51:41.614Z,12.37
2018-09-01T01:56:46.386Z,12.33
2018-09-01T02:01:50.205Z,12.24
2018-09-01T02:06:54.044Z,12.12
2018-09-01T02:11:58.212Z,12.06
2018-09-01T02:17:02.051Z,11.90
2018-09-01T02:22:05.818Z,11.88
2018-09-01T02:27:09.582Z,11.80
2018-09-01T02:32:13.892Z,11.73
2018-09-01T02:37:17.570Z,11.63
2018-09-01T02:42:21.158Z,11.57
2018-09-01T02:47:24.727Z,11.53
2018-09-01T02:52:28.700Z,11.45
2018-09-01T02:57:32.398Z,11.40
2018-09-01T03:02:41.279Z,11.31
2018-09-01T03:07:44.961Z,11.27
2018-09-01T03:12:49.465Z,11.21
2018-09-01T03:17:53.030Z,11.14
2018-09-01T03:23:04.624Z,11.04
2018-09-01T03:28:08.182Z,10.97
2018-09-01T03:33:11.801Z,10.95
2018-09-01T03:38:15.333Z,10.85
2018-09-01T03:43:18.893Z,10.74
2018-09-01T03:48:22.426Z,10.68
2018-09-01T03:53:26.283Z,10.63
2018-09-01T03:58:29.897Z,10.55
2018-09-01T04:03:33.498Z,10.58
2018-09-01T04:08:37.158Z,10.47
2018-09-01T04:13:40.752Z,10.40
2018-09-01T04:18:44.707Z,10.39
2018-09-01T04:23:48.267Z,10.35
2018-09-01T04:28:52.307Z,10.31
2018-09-01T04:33:56.388Z,10.22
2018-09-01T04:38:59.963Z,10.23
2018-09-01T04:44:03.638Z,10.24
2018-09-01T04:49:07.181Z,10.20
2018-09-01T04:54:10.754Z,9.97
2018-09-01T04:59:14.262Z,10.10
2018-09-01T05:04:18.613Z,10.17
2018-09-01T05:09:22.282Z,10.26
2018-09-01T05:14:25.884Z,10.32
2018-09-01T05:19:30.219Z,10.39
2018-09-01T05:24:34.182Z,10.55
2018-09-01T05:29:37.724Z,10.40
2018-09-01T05:34:41.452Z,10.43
2018-09-01T05:39:45.123Z,10.03
2018-09-01T05:44:48.728Z,10.21
2018-09-01T05:49:52.941Z,10.63
2018-09-01T05:54:57.214Z,11.07
2018-09-01T06:00:00.758Z,11.37
2018-09-01T06:05:04.987Z,11.65
2018-09-01T06:10:08.483Z,11.85
2018-09-01T06:15:12.229Z,12.07
2018-09-01T06:20:15.857Z,12.45
2018-09-01T06:25:19.433Z,12.76
2018-09-01T06:30:31.850Z,13.04
2018-09-01T06:35:35.482Z,13.24
2018-09-01T06:40:39.156Z,13.44
2018-09-01T06:45:43.148Z,13.66
2018-09-01T06:50:47.236Z,13.99
2018-09-01T06:55:51.506Z,14.16
2018-09-01T07:00:55.031Z,14.32
2018-09-01T07:06:04.574Z,14.54
2018-09-01T07:11:08.253Z,14.67
2018-09-01T07:16:11.996Z,14.89
2018-09-01T07:21:15.717Z,15.13
2018-09-01T07:26:19.475Z,15.18
2018-09-01T07:31:23.516Z,15.42
2018-09-01T07:36:26.790Z,15.54
2018-09-01T07:41:30.940Z,15.64
2018-09-01T07:46:35.454Z,15.75
2018-09-01T07:51:39.184Z,15.74
2018-09-01T07:56:43.211Z,16.11
2018-09-01T08:01:46.724Z,16.19
2018-09-01T08:06:50.266Z,16.62
2018-09-01T08:11:53.896Z,16.93
2018-09-01T08:16:57.868Z,16.97
2018-09-01T08:22:02.470Z,17.14
2018-09-01T08:27:06.017Z,17.22
2018-09-01T08:32:09.598Z,17.35
2018-09-01T08:37:13.419Z,17.27
2018-09-01T08:42:23.075Z,17.48
2018-09-01T08:47:27.192Z,17.81
2018-09-01T08:52:30.898Z,18.06
2018-09-01T08:57:34.782Z,18.35
2018-09-01T09:02:39.382Z,18.44
2018-09-01T09:07:42.947Z,18.77
2018-09-01T09:12:47.036Z,18.47
2018-09-01T09:17:54.573Z,19.25
2018-09-01T09:23:03.654Z,18.66
2018-09-01T09:28:10.241Z,18.17
2018-09-01T09:33:17.340Z,17.96
2018-09-01T09:38:23.983Z,18.73
2018-09-01T09:43:30.782Z,19.45
2018-09-01T09:48:37.129Z,19.53
2018-09-01T09:53:40.736Z,19.52
2018-09-01T09:58:44.292Z,20.14
2018-09-01T10:03:48.190Z,20.27
2018-09-01T10:08:52.184Z,20.74
2018-09-01T10:13:55.928Z,20.24
2018-09-01T10:18:59.479Z,19.72
2018-09-01T10:24:03.301Z,19.40
2018-09-01T10:29:06.997Z,19.47
2018-09-01T10:34:10.627Z,19.26
2018-09-01T10:39:14.317Z,19.53
2018-09-01T10:44:18.869Z,18.94
2018-09-01T10:49:22.515Z,18.55
2018-09-01T10:54:26.096Z,18.82
2018-09-01T10:59:29.737Z,19.34
2018-09-01T11:04:33.210Z,20.04
2018-09-01T11:09:36.835Z,20.69
2018-09-01T11:14:40.681Z,19.72
2018-09-01T11:19:44.571Z,19.58
2018-09-01T11:24:48.214Z,19.78
2018-09-01T11:29:51.785Z,19.69
2018-09-01T11:34:56.265Z,20.34
2018-09-01T11:39:59.849Z,20.25
2018-09-01T11:45:03.713Z,20.24
2018-09-01T11:50:07.221Z,19.82
2018-09-01T11:55:11.473Z,19.95
2018-09-01T12:00:21.384Z,20.35
2018-09-01T12:05:25.752Z,20.00
2018-09-01T12:10:29.365Z,19.69
2018-09-01T12:15:33.064Z,19.78
2018-09-01T12:20:36.660Z,20.52
2018-09-01T12:25:40.204Z,20.80
2018-09-01T12:30:43.853Z,21.48
2018-09-01T12:35:47.627Z,22.05
2018-09-01T12:40:51.135Z,21.60
2018-09-01T12:45:54.689Z,21.01
2018-09-01T12:50:58.296Z,20.96
2018-09-01T12:56:03.130Z,20.77
2018-09-01T13:01:07.151Z,19.96
2018-09-01T13:06:11.377Z,20.12
2018-09-01T13:11:15.011Z,20.80
2018-09-01T13:16:19.049Z,21.34
2018-09-01T13:21:22.698Z,21.46
2018-09-01T13:26:26.636Z,20.68
2018-09-01T13:31:30.969Z,20.85
2018-09-01T13:36:34.591Z,20.96
2018-09-01T13:41:38.387Z,21.55
2018-09-01T13:46:42.043Z,21.78
2018-09-01T13:51:45.570Z,21.54
2018-09-01T13:56:49.523Z,21.60
2018-09-01T14:01:53.032Z,21.24
2018-09-01T14:06:58.577Z,21.32
2018-09-01T14:12:02.845Z,21.55
2018-09-01T14:17:07.063Z,21.70
2018-09-01T14:22:10.567Z,21.66
2018-09-01T14:27:14.801Z,21.48
2018-09-01T14:32:18.312Z,21.48
2018-09-01T14:37:21.933Z,22.00
2018-09-01T14:42:25.416Z,21.65
2018-09-01T14:47:29.135Z,21.59
2018-09-01T14:52:32.648Z,21.74
2018-09-01T14:57:36.197Z,21.03
2018-09-01T15:02:39.667Z,20.86
2018-09-01T15:07:43.245Z,20.85
2018-09-01T15:12:46.836Z,21.06
2018-09-01T15:17:50.416Z,21.65
2018-09-01T15:22:54.102Z,21.87
2018-09-01T15:27:57.669Z,21.85
2018-09-01T15:33:02.145Z,21.76
2018-09-01T15:38:05.918Z,21.75
2018-09-01T15:43:09.489Z,21.87
2018-09-01T15:48:13.506Z,22.02
2018-09-01T15:53:17.222Z,21.26
2018-09-01T15:58:20.782Z,21.32
2018-09-01T16:03:24.494Z,21.15
2018-09-01T16:08:28.106Z,21.25
2018-09-01T16:13:31.915Z,21.38
2018-09-01T16:40:28.072Z,20.34
2018-09-01T16:45:31.686Z,20.13
2018-09-01T16:50:35.297Z,20.07
2018-09-01T16:55:38.859Z,20.06
2018-09-01T17:00:42.562Z,20.12
2018-09-01T17:05:46.025Z,20.17
2018-09-01T17:10:49.617Z,20.05
2018-09-01T17:15:53.669Z,19.96
2018-09-01T17:20:57.192Z,20.32
2018-09-01T17:26:00.767Z,20.51
2018-09-01T17:31:04.603Z,20.09
2018-09-01T17:36:08.137Z,19.87
2018-09-01T17:41:11.825Z,19.54
2018-09-01T17:46:16.807Z,19.25
2018-09-01T17:51:20.461Z,18.99
2018-09-01T17:56:24.704Z,18.75
2018-09-01T18:01:28.716Z,18.61
2018-09-01T18:06:32.285Z,18.42
2018-09-01T18:11:35.867Z,18.25
2018-09-01T18:16:39.751Z,18.10
2018-09-01T18:21:43.291Z,17.91
2018-09-01T18:26:46.781Z,17.77
2018-09-01T18:31:51.202Z,17.66
2018-09-01T18:36:55.087Z,17.47
2018-09-01T18:41:58.999Z,17.28
2018-09-01T18:47:02.947Z,17.13
2018-09-01T18:52:06.971Z,16.99
2018-09-01T18:57:10.889Z,16.89
2018-09-01T19:02:15.348Z,16.80
2018-09-01T19:07:18.915Z,16.69
2018-09-01T19:12:22.799Z,16.57
2018-09-01T19:17:26.348Z,16.54
2018-09-01T19:22:37.164Z,16.47
2018-09-01T19:27:40.669Z,16.36
2018-09-01T19:32:44.465Z,16.30
2018-09-01T19:37:47.944Z,16.25
2018-09-01T19:42:52.016Z,16.20
2018-09-01T19:47:55.457Z,16.15
2018-09-01T19:53:00.203Z,16.10
2018-09-01T19:58:03.742Z,15.96
2018-09-01T20:03:07.506Z,15.91
2018-09-01T20:08:11.642Z,15.85
2018-09-01T20:13:15.398Z,15.66
2018-09-01T20:18:18.905Z,15.64
2018-09-01T20:23:22.465Z,15.61
2018-09-01T20:28:26.870Z,15.55
2018-09-01T20:33:30.695Z,15.52
2018-09-01T20:38:34.209Z,15.41
2018-09-01T20:43:37.784Z,15.32
2018-09-01T20:48:41.267Z,15.31
2018-09-01T20:53:44.980Z,15.28
2018-09-01T20:58:48.617Z,15.22
2018-09-01T21:03:52.849Z,15.22
2018-09-01T21:08:56.393Z,15.18
2018-09-01T21:14:00.082Z,15.14
2018-09-01T21:19:03.549Z,15.10
2018-09-01T21:24:07.297Z,15.03
2018-09-01T21:29:11.338Z,14.96
2018-09-01T21:34:14.999Z,14.90
2018-09-01T21:39:18.894Z,14.83
2018-09-01T21:44:22.701Z,14.75
2018-09-01T21:49:26.313Z,14.71
2018-09-01T21:54:29.987Z,14.68
2018-09-01T21:59:34.858Z,14.61
2018-09-01T22:04:43.901Z,14.61
2018-09-01T22:09:47.718Z,14.57
2018-09-01T22:14:52.655Z,14.53
2018-09-01T22:19:56.182Z,14.52
2018-09-01T22:24:59.786Z,14.49
2018-09-01T22:30:17.340Z,14.50
2018-09-01T22:35:20.889Z,14.44
2018-09-01T22:40:24.707Z,14.44
2018-09-01T22:45:28.754Z,14.39
2018-09-01T22:50:32.714Z,14.37
2018-09-01T22:55:36.178Z,14.39
2018-09-01T23:00:39.707Z,14.40
2018-09-01T23:05:43.319Z,14.42
2018-09-01T23:10:46.914Z,14.44
2018-09-01T23:15:50.578Z,14.41
2018-09-01T23:20:54.545Z,14.50
2018-09-01T23:25:58.008Z,14.50
2018-09-01T23:31:01.574Z,14.41
2018-09-01T23:36:05.139Z,14.31
2018-09-01T23:41:08.954Z,14.26
2018-09-01T23:46:12.893Z,14.18
2018-09-01T23:51:16.409Z,14.14
2018-09-01T23:56:20.380Z,14.22
